PWSweather.com
Personal Weather Stations
Station Observations
KCAEMERA1
Emerald Hills, Redwood City, CA 94062

Emerald HillsRedwood City, CA 94062

Lat: 37.46, Lon: -122.27

Elevation: 800

Station Type:

http://www.anegada.com/weather/wx.htm

High Low Average
Temperature 55.1°F12.8°C 45.8°F7.7°C 49.6°F9.8°C
Dew Point 41.4°F5.2°C 32.8°F0.4°C 38.8°F3.8°C
Winds 5.0 mph 8.0 kmh Calm Calm 1.0 mph SSW1.6 kmh SSW
Wind Gusts 7.0 mph11.3 kmh -- 3.0 mph4.8 kmh
Humidity 76% 54% 67%
Pressure 30.40 in1029.5 mb 30.31 in1026.4 mb -
Precipitation 0.00 in0.0 mm - -
Hour Temp Dew Point Humidity Winds Wind Gusts Pressure Precip Precip Rate Daily Precip Total
12:03 AM 49.1°F9.5°C 39.8°F4.3°C 70% 1.0 mph WNW1.6 kmh WNW 2.0 mph3.2 kmh 30.34 in1027.4 mb 0.00 in0.0 mm 0.00 in/hr0.0 mm/hr 0.00 in0.0 mm
12:11 AM 49.1°F9.5°C 39.8°F4.3°C 70% 2.0 mph WNW3.2 kmh WNW 3.0 mph4.8 kmh 30.34 in1027.4 mb 0.00 in0.0 mm 0.00 in/hr0.0 mm/hr 0.00 in0.0 mm
12:21 AM 49.1°F9.5°C 39.8°F4.3°C 70% 2.0 mph WNW3.2 kmh WNW 3.0 mph4.8 kmh 30.34 in1027.4 mb 0.00 in0.0 mm 0.00 in/hr0.0 mm/hr 0.00 in0.0 mm
12:33 AM 49.0°F9.4°C 39.7°F4.3°C 70% 3.0 mph WNW4.8 kmh WNW 4.0 mph6.4 kmh 30.34 in1027.4 mb 0.00 in0.0 mm 0.00 in/hr0.0 mm/hr 0.00 in0.0 mm
12:41 AM 48.9°F9.4°C 39.6°F4.2°C 70% 4.0 mph W6.4 kmh W 7.0 mph11.3 kmh 30.34 in1027.4 mb 0.00 in0.0 mm 0.00 in/hr0.0 mm/hr 0.00 in0.0 mm
12:51 AM 48.6°F9.2°C 40.4°F4.7°C 73% 4.0 mph W6.4 kmh W 7.0 mph11.3 kmh 30.34 in1027.4 mb 0.00 in0.0 mm 0.00 in/hr0.0 mm/hr 0.00 in0.0 mm
01:03 AM 48.4°F9.1°C 41.2°F5.1°C 76% 2.0 mph W3.2 kmh W 4.0 mph6.4 kmh 30.34 in1027.4 mb 0.00 in0.0 mm 0.00 in/hr0.0 mm/hr 0.00 in0.0 mm
01:11 AM 48.5°F9.2°C 41.0°F5.0°C 75% 2.0 mph W3.2 kmh W 7.0 mph11.3 kmh 30.35 in1027.8 mb 0.00 in0.0 mm 0.00 in/hr0.0 mm/hr 0.00 in0.0 mm
01:21 AM 48.7°F9.3°C 40.8°F4.9°C 74% 5.0 mph W8.0 kmh W 6.0 mph9.7 kmh 30.34 in1027.4 mb 0.00 in0.0 mm 0.00 in/hr0.0 mm/hr 0.00 in0.0 mm
01:33 AM 48.9°F9.4°C 41.0°F5.0°C 74% 4.0 mph WNW6.4 kmh WNW 7.0 mph11.3 kmh 30.35 in1027.8 mb 0.00 in0.0 mm 0.00 in/hr0.0 mm/hr 0.00 in0.0 mm
01:41 AM 48.9°F9.4°C 41.0°F5.0°C 74% 2.0 mph WNW3.2 kmh WNW 4.0 mph6.4 kmh 30.34 in1027.4 mb 0.00 in0.0 mm 0.00 in/hr0.0 mm/hr 0.00 in0.0 mm
01:51 AM 48.8°F9.3°C 40.9°F4.9°C 74% 1.0 mph WNW1.6 kmh WNW 4.0 mph6.4 kmh 30.35 in1027.8 mb 0.00 in0.0 mm 0.00 in/hr0.0 mm/hr 0.00 in0.0 mm
02:03 AM 48.9°F9.4°C 41.3°F5.2°C 75% 3.0 mph NW4.8 kmh NW 4.0 mph6.4 kmh 30.36 in1028.1 mb 0.00 in0.0 mm 0.00 in/hr0.0 mm/hr 0.00 in0.0 mm
02:11 AM 48.9°F9.4°C 41.3°F5.2°C 75% Calm Calm 5.0 mph8.0 kmh 30.35 in1027.8 mb 0.00 in0.0 mm 0.00 in/hr0.0 mm/hr 0.00 in0.0 mm
02:21 AM 48.9°F9.4°C 41.3°F5.2°C 75% Calm Calm 1.0 mph1.6 kmh 30.34 in1027.4 mb 0.00 in0.0 mm 0.00 in/hr0.0 mm/hr 0.00 in0.0 mm
02:51 AM 48.7°F9.3°C 41.1°F5.1°C 75% 1.0 mph NW1.6 kmh NW 3.0 mph4.8 kmh 30.35 in1027.8 mb 0.00 in0.0 mm 0.00 in/hr0.0 mm/hr 0.00 in0.0 mm
03:03 AM 48.5°F9.2°C 41.0°F5.0°C 75% 3.0 mph W4.8 kmh W 3.0 mph4.8 kmh 30.35 in1027.8 mb 0.00 in0.0 mm 0.00 in/hr0.0 mm/hr 0.00 in0.0 mm
03:11 AM 48.4°F9.1°C 40.9°F4.9°C 75% 3.0 mph W4.8 kmh W 4.0 mph6.4 kmh 30.34 in1027.4 mb 0.00 in0.0 mm 0.00 in/hr0.0 mm/hr 0.00 in0.0 mm
03:21 AM 48.5°F9.2°C 41.0°F5.0°C 75% 3.0 mph W4.8 kmh W 4.0 mph6.4 kmh 30.35 in1027.8 mb 0.01 in0.3 mm 0.06 in/hr1.5 mm/hr 0.01 in0.3 mm
03:33 AM 48.6°F9.2°C 41.1°F5.1°C 75% 3.0 mph SW4.8 kmh SW 7.0 mph11.3 kmh 30.35 in1027.8 mb 0.01 in0.3 mm 0.00 in/hr0.0 mm/hr 0.01 in0.3 mm
03:41 AM 48.6°F9.2°C 41.1°F5.1°C 75% 3.0 mph SW4.8 kmh SW 4.0 mph6.4 kmh 30.34 in1027.4 mb 0.01 in0.3 mm 0.00 in/hr0.0 mm/hr 0.01 in0.3 mm
03:51 AM 48.8°F9.3°C 41.2°F5.1°C 75% 1.0 mph SW1.6 kmh SW 6.0 mph9.7 kmh 30.34 in1027.4 mb 0.01 in0.3 mm 0.00 in/hr0.0 mm/hr 0.01 in0.3 mm
04:03 AM 48.6°F9.2°C 41.1°F5.1°C 75% 1.0 mph WNW1.6 kmh WNW 3.0 mph4.8 kmh 30.35 in1027.8 mb 0.01 in0.3 mm 0.00 in/hr0.0 mm/hr 0.01 in0.3 mm
04:11 AM 48.4°F9.1°C 40.9°F4.9°C 75% 3.0 mph WNW4.8 kmh WNW 4.0 mph6.4 kmh 30.35 in1027.8 mb 0.01 in0.3 mm 0.00 in/hr0.0 mm/hr 0.01 in0.3 mm
04:21 AM 47.9°F8.8°C 40.7°F4.8°C 76% 4.0 mph NNW6.4 kmh NNW 4.0 mph6.4 kmh 30.36 in1028.1 mb 0.00 in0.0 mm 0.00 in/hr0.0 mm/hr 0.01 in0.3 mm
04:33 AM 48.2°F9.0°C 41.0°F5.0°C 76% 2.0 mph N3.2 kmh N 7.0 mph11.3 kmh 30.35 in1027.8 mb 0.00 in0.0 mm 0.00 in/hr0.0 mm/hr 0.01 in0.3 mm
04:41 AM 48.1°F8.9°C 40.9°F4.9°C 76% Calm Calm -- 30.36 in1028.1 mb 0.00 in0.0 mm 0.00 in/hr0.0 mm/hr 0.01 in0.3 mm
04:51 AM 48.2°F9.0°C 41.0°F5.0°C 76% Calm Calm 1.0 mph1.6 kmh 30.36 in1028.1 mb 0.00 in0.0 mm 0.00 in/hr0.0 mm/hr 0.01 in0.3 mm
05:03 AM 48.3°F9.1°C 41.1°F5.1°C 76% 1.0 mph N1.6 kmh N 2.0 mph3.2 kmh 30.35 in1027.8 mb 0.00 in0.0 mm 0.00 in/hr0.0 mm/hr 0.01 in0.3 mm
05:11 AM 48.4°F9.1°C 40.9°F4.9°C 75% 1.0 mph N1.6 kmh N 3.0 mph4.8 kmh 30.35 in1027.8 mb 0.00 in0.0 mm 0.00 in/hr0.0 mm/hr 0.01 in0.3 mm
05:21 AM 48.5°F9.2°C 41.0°F5.0°C 75% 2.0 mph N3.2 kmh N 3.0 mph4.8 kmh 30.35 in1027.8 mb 0.00 in0.0 mm 0.00 in/hr0.0 mm/hr 0.01 in0.3 mm
05:33 AM 48.5°F9.2°C 41.0°F5.0°C 75% 1.0 mph N1.6 kmh N 3.0 mph4.8 kmh 30.35 in1027.8 mb 0.00 in0.0 mm 0.00 in/hr0.0 mm/hr 0.01 in0.3 mm
05:41 AM 48.5°F9.2°C 40.6°F4.8°C 74% 1.0 mph N1.6 kmh N 2.0 mph3.2 kmh 30.35 in1027.8 mb 0.00 in0.0 mm 0.00 in/hr0.0 mm/hr 0.01 in0.3 mm
05:51 AM 48.6°F9.2°C 40.7°F4.8°C 74% Calm Calm 2.0 mph3.2 kmh 30.35 in1027.8 mb 0.00 in0.0 mm 0.00 in/hr0.0 mm/hr 0.01 in0.3 mm
06:03 AM 48.7°F9.3°C 40.8°F4.9°C 74% 2.0 mph N3.2 kmh N 2.0 mph3.2 kmh 30.34 in1027.4 mb 0.00 in0.0 mm 0.00 in/hr0.0 mm/hr 0.01 in0.3 mm
06:11 AM 48.6°F9.2°C 40.7°F4.8°C 74% 3.0 mph NNW4.8 kmh NNW 4.0 mph6.4 kmh 30.34 in1027.4 mb 0.00 in0.0 mm 0.00 in/hr0.0 mm/hr 0.01 in0.3 mm
06:21 AM 48.5°F9.2°C 40.6°F4.8°C 74% Calm Calm 2.0 mph3.2 kmh 30.34 in1027.4 mb 0.00 in0.0 mm 0.00 in/hr0.0 mm/hr 0.01 in0.3 mm
06:33 AM 48.3°F9.1°C 40.4°F4.7°C 74% Calm Calm 2.0 mph3.2 kmh 30.35 in1027.8 mb 0.00 in0.0 mm 0.00 in/hr0.0 mm/hr 0.01 in0.3 mm
06:41 AM 48.3°F9.1°C 40.4°F4.7°C 74% 2.0 mph NNW3.2 kmh NNW 2.0 mph3.2 kmh 30.35 in1027.8 mb 0.00 in0.0 mm 0.00 in/hr0.0 mm/hr 0.01 in0.3 mm
06:51 AM 48.2°F9.0°C 40.3°F4.6°C 74% 4.0 mph WSW6.4 kmh WSW 6.0 mph9.7 kmh 30.35 in1027.8 mb 0.00 in0.0 mm 0.00 in/hr0.0 mm/hr 0.01 in0.3 mm
07:03 AM 47.7°F8.7°C 39.5°F4.2°C 73% 4.0 mph WSW6.4 kmh WSW 4.0 mph6.4 kmh 30.34 in1027.4 mb 0.00 in0.0 mm 0.00 in/hr0.0 mm/hr 0.01 in0.3 mm
07:11 AM 47.8°F8.8°C 40.3°F4.6°C 75% Calm Calm 4.0 mph6.4 kmh 30.35 in1027.8 mb 0.00 in0.0 mm 0.00 in/hr0.0 mm/hr 0.01 in0.3 mm
07:21 AM 47.6°F8.7°C 40.4°F4.7°C 76% 1.0 mph WSW1.6 kmh WSW 2.0 mph3.2 kmh 30.35 in1027.8 mb 0.00 in0.0 mm 0.00 in/hr0.0 mm/hr 0.01 in0.3 mm
07:33 AM 47.7°F8.7°C 40.5°F4.7°C 76% Calm Calm 2.0 mph3.2 kmh 30.35 in1027.8 mb 0.00 in0.0 mm 0.00 in/hr0.0 mm/hr 0.01 in0.3 mm
07:41 AM 47.0°F8.3°C 39.8°F4.3°C 76% 2.0 mph NW3.2 kmh NW 2.0 mph3.2 kmh 30.36 in1028.1 mb 0.00 in0.0 mm 0.00 in/hr0.0 mm/hr 0.01 in0.3 mm
07:51 AM 46.7°F8.2°C 38.9°F3.8°C 74% Calm Calm 2.0 mph3.2 kmh 30.35 in1027.8 mb 0.00 in0.0 mm 0.00 in/hr0.0 mm/hr 0.01 in0.3 mm
08:03 AM 46.5°F8.1°C 38.0°F3.3°C 72% Calm Calm 2.0 mph3.2 kmh 30.36 in1028.1 mb 0.00 in0.0 mm 0.00 in/hr0.0 mm/hr 0.01 in0.3 mm
08:11 AM 46.6°F8.1°C 34.3°F1.3°C 62% Calm Calm 2.0 mph3.2 kmh 30.37 in1028.4 mb 0.00 in0.0 mm 0.00 in/hr0.0 mm/hr 0.01 in0.3 mm
08:21 AM 46.6°F8.1°C 33.9°F1.1°C 61% Calm Calm -- 30.36 in1028.1 mb 0.00 in0.0 mm 0.00 in/hr0.0 mm/hr 0.01 in0.3 mm
08:33 AM 46.6°F8.1°C 33.9°F1.1°C 61% Calm Calm 2.0 mph3.2 kmh 30.36 in1028.1 mb 0.00 in0.0 mm 0.00 in/hr0.0 mm/hr 0.01 in0.3 mm
08:41 AM 46.7°F8.2°C 34.4°F1.3°C 62% 1.0 mph NW1.6 kmh NW 2.0 mph3.2 kmh 30.37 in1028.4 mb 0.00 in0.0 mm 0.00 in/hr0.0 mm/hr 0.01 in0.3 mm
08:51 AM 46.3°F7.9°C 32.8°F0.4°C 59% 2.0 mph NW3.2 kmh NW 4.0 mph6.4 kmh 30.37 in1028.4 mb 0.00 in0.0 mm 0.00 in/hr0.0 mm/hr 0.01 in0.3 mm
09:03 AM 46.0°F7.8°C 34.1°F1.2°C 63% 2.0 mph NW3.2 kmh NW 2.0 mph3.2 kmh 30.37 in1028.4 mb 0.00 in0.0 mm 0.00 in/hr0.0 mm/hr 0.01 in0.3 mm
09:11 AM 45.8°F7.7°C 33.1°F0.6°C 61% 1.0 mph NW1.6 kmh NW 3.0 mph4.8 kmh 30.37 in1028.4 mb 0.00 in0.0 mm 0.00 in/hr0.0 mm/hr 0.01 in0.3 mm
09:21 AM 45.9°F7.7°C 33.2°F0.7°C 61% Calm Calm 2.0 mph3.2 kmh 30.38 in1028.8 mb 0.00 in0.0 mm 0.00 in/hr0.0 mm/hr 0.01 in0.3 mm
09:33 AM 46.2°F7.9°C 33.9°F1.1°C 62% Calm Calm 2.0 mph3.2 kmh 30.38 in1028.8 mb 0.00 in0.0 mm 0.00 in/hr0.0 mm/hr 0.01 in0.3 mm
09:41 AM 46.3°F7.9°C 34.4°F1.3°C 63% 3.0 mph E4.8 kmh E 3.0 mph4.8 kmh 30.39 in1029.1 mb 0.00 in0.0 mm 0.00 in/hr0.0 mm/hr 0.01 in0.3 mm
09:51 AM 46.7°F8.2°C 34.8°F1.6°C 63% 1.0 mph E1.6 kmh E 3.0 mph4.8 kmh 30.39 in1029.1 mb 0.00 in0.0 mm 0.00 in/hr0.0 mm/hr 0.01 in0.3 mm
10:03 AM 47.0°F8.3°C 35.1°F1.7°C 63% 2.0 mph E3.2 kmh E 2.0 mph3.2 kmh 30.39 in1029.1 mb 0.00 in0.0 mm 0.00 in/hr0.0 mm/hr 0.01 in0.3 mm
10:11 AM 47.2°F8.4°C 35.3°F1.8°C 63% Calm Calm 3.0 mph4.8 kmh 30.39 in1029.1 mb 0.00 in0.0 mm 0.00 in/hr0.0 mm/hr 0.01 in0.3 mm
10:21 AM 47.7°F8.7°C 35.7°F2.1°C 63% Calm Calm -- 30.39 in1029.1 mb 0.00 in0.0 mm 0.00 in/hr0.0 mm/hr 0.01 in0.3 mm
10:33 AM 48.6°F9.2°C 36.6°F2.6°C 63% Calm Calm 2.0 mph3.2 kmh 30.40 in1029.5 mb 0.00 in0.0 mm 0.00 in/hr0.0 mm/hr 0.01 in0.3 mm
10:42 AM 48.7°F9.3°C 36.3°F2.4°C 62% Calm Calm -- 30.40 in1029.5 mb 0.00 in0.0 mm 0.00 in/hr0.0 mm/hr 0.01 in0.3 mm
10:51 AM 48.9°F9.4°C 36.5°F2.5°C 62% Calm Calm 3.0 mph4.8 kmh 30.40 in1029.5 mb 0.00 in0.0 mm 0.00 in/hr0.0 mm/hr 0.01 in0.3 mm
11:03 AM 49.1°F9.5°C 36.3°F2.4°C 61% Calm Calm 2.0 mph3.2 kmh 30.40 in1029.5 mb 0.00 in0.0 mm 0.00 in/hr0.0 mm/hr 0.01 in0.3 mm
11:11 AM 49.6°F9.8°C 36.7°F2.6°C 61% Calm Calm 2.0 mph3.2 kmh 30.39 in1029.1 mb 0.00 in0.0 mm 0.00 in/hr0.0 mm/hr 0.01 in0.3 mm
11:21 AM 50.9°F10.5°C 38.8°F3.8°C 63% Calm Calm 4.0 mph6.4 kmh 30.39 in1029.1 mb 0.00 in0.0 mm 0.00 in/hr0.0 mm/hr 0.01 in0.3 mm
11:33 AM 52.4°F11.3°C 41.4°F5.2°C 66% 1.0 mph E1.6 kmh E 5.0 mph8.0 kmh 30.39 in1029.1 mb 0.00 in0.0 mm 0.00 in/hr0.0 mm/hr 0.01 in0.3 mm
11:41 AM 52.7°F11.5°C 39.2°F4.0°C 60% 1.0 mph E1.6 kmh E 4.0 mph6.4 kmh 30.39 in1029.1 mb 0.00 in0.0 mm 0.00 in/hr0.0 mm/hr 0.01 in0.3 mm
11:51 AM 51.9°F11.1°C 38.9°F3.8°C 61% Calm Calm 4.0 mph6.4 kmh 30.38 in1028.8 mb 0.00 in0.0 mm 0.00 in/hr0.0 mm/hr 0.01 in0.3 mm
12:03 PM 50.9°F10.5°C 38.0°F3.3°C 61% 1.0 mph E1.6 kmh E 2.0 mph3.2 kmh 30.38 in1028.8 mb 0.00 in0.0 mm 0.00 in/hr0.0 mm/hr 0.01 in0.3 mm
12:11 PM 51.1°F10.6°C 38.1°F3.4°C 61% 1.0 mph E1.6 kmh E 5.0 mph8.0 kmh 30.37 in1028.4 mb 0.00 in0.0 mm 0.00 in/hr0.0 mm/hr 0.01 in0.3 mm
12:21 PM 51.2°F10.7°C 38.2°F3.4°C 61% 2.0 mph E3.2 kmh E 2.0 mph3.2 kmh 30.37 in1028.4 mb 0.00 in0.0 mm 0.00 in/hr0.0 mm/hr 0.01 in0.3 mm
12:33 PM 50.7°F10.4°C 37.8°F3.2°C 61% 1.0 mph E1.6 kmh E 3.0 mph4.8 kmh 30.36 in1028.1 mb 0.00 in0.0 mm 0.00 in/hr0.0 mm/hr 0.01 in0.3 mm
12:41 PM 50.7°F10.4°C 37.8°F3.2°C 61% Calm Calm -- 30.36 in1028.1 mb 0.00 in0.0 mm 0.00 in/hr0.0 mm/hr 0.01 in0.3 mm
12:51 PM 50.8°F10.4°C 38.3°F3.5°C 62% Calm Calm 2.0 mph3.2 kmh 30.35 in1027.8 mb 0.00 in0.0 mm 0.00 in/hr0.0 mm/hr 0.01 in0.3 mm
01:03 PM 50.8°F10.4°C 37.9°F3.3°C 61% 1.0 mph E1.6 kmh E 4.0 mph6.4 kmh 30.35 in1027.8 mb 0.00 in0.0 mm 0.00 in/hr0.0 mm/hr 0.01 in0.3 mm
01:11 PM 50.8°F10.4°C 37.9°F3.3°C 61% Calm Calm 5.0 mph8.0 kmh 30.35 in1027.8 mb 0.00 in0.0 mm 0.00 in/hr0.0 mm/hr 0.01 in0.3 mm
01:21 PM 51.2°F10.7°C 38.2°F3.4°C 61% Calm Calm 2.0 mph3.2 kmh 30.34 in1027.4 mb 0.00 in0.0 mm 0.00 in/hr0.0 mm/hr 0.01 in0.3 mm
01:33 PM 52.0°F11.1°C 39.0°F3.9°C 61% Calm Calm 4.0 mph6.4 kmh 30.34 in1027.4 mb 0.00 in0.0 mm 0.00 in/hr0.0 mm/hr 0.01 in0.3 mm
01:41 PM 52.7°F11.5°C 39.2°F4.0°C 60% Calm Calm 1.0 mph1.6 kmh 30.33 in1027.1 mb 0.00 in0.0 mm 0.00 in/hr0.0 mm/hr 0.01 in0.3 mm
01:51 PM 53.2°F11.8°C 39.3°F4.1°C 59% 2.0 mph E3.2 kmh E 5.0 mph8.0 kmh 30.33 in1027.1 mb 0.00 in0.0 mm 0.00 in/hr0.0 mm/hr 0.01 in0.3 mm
02:03 PM 53.0°F11.7°C 38.6°F3.7°C 58% Calm Calm 4.0 mph6.4 kmh 30.32 in1026.8 mb 0.00 in0.0 mm 0.00 in/hr0.0 mm/hr 0.01 in0.3 mm
02:11 PM 53.0°F11.7°C 38.6°F3.7°C 58% 3.0 mph E4.8 kmh E 6.0 mph9.7 kmh 30.32 in1026.8 mb 0.00 in0.0 mm 0.00 in/hr0.0 mm/hr 0.01 in0.3 mm
02:21 PM 53.2°F11.8°C 39.3°F4.1°C 59% 1.0 mph E1.6 kmh E 2.0 mph3.2 kmh 30.32 in1026.8 mb 0.00 in0.0 mm 0.00 in/hr0.0 mm/hr 0.01 in0.3 mm
02:33 PM 53.6°F12.0°C 39.2°F4.0°C 58% 1.0 mph E1.6 kmh E 5.0 mph8.0 kmh 30.32 in1026.8 mb 0.00 in0.0 mm 0.00 in/hr0.0 mm/hr 0.01 in0.3 mm
02:41 PM 53.8°F12.1°C 38.9°F3.8°C 57% Calm Calm 1.0 mph1.6 kmh 30.31 in1026.4 mb 0.00 in0.0 mm 0.00 in/hr0.0 mm/hr 0.01 in0.3 mm
02:51 PM 54.2°F12.3°C 38.9°F3.8°C 56% Calm Calm 3.0 mph4.8 kmh 30.32 in1026.8 mb 0.00 in0.0 mm 0.00 in/hr0.0 mm/hr 0.01 in0.3 mm
03:03 PM 54.4°F12.4°C 39.5°F4.2°C 57% Calm Calm 2.0 mph3.2 kmh 30.32 in1026.8 mb 0.00 in0.0 mm 0.00 in/hr0.0 mm/hr 0.01 in0.3 mm
03:11 PM 54.6°F12.6°C 40.1°F4.5°C 58% Calm Calm 4.0 mph6.4 kmh 30.31 in1026.4 mb 0.00 in0.0 mm 0.00 in/hr0.0 mm/hr 0.01 in0.3 mm
03:21 PM 54.7°F12.6°C 38.9°F3.8°C 55% 2.0 mph E3.2 kmh E 2.0 mph3.2 kmh 30.31 in1026.4 mb 0.00 in0.0 mm 0.00 in/hr0.0 mm/hr 0.01 in0.3 mm
03:33 PM 54.9°F12.7°C 38.6°F3.7°C 54% 1.0 mph E1.6 kmh E 2.0 mph3.2 kmh 30.31 in1026.4 mb 0.00 in0.0 mm 0.00 in/hr0.0 mm/hr 0.01 in0.3 mm
03:41 PM 55.1°F12.8°C 38.8°F3.8°C 54% Calm Calm 2.0 mph3.2 kmh 30.31 in1026.4 mb 0.00 in0.0 mm 0.00 in/hr0.0 mm/hr 0.01 in0.3 mm
03:51 PM 55.1°F12.8°C 39.2°F4.0°C 55% 1.0 mph E1.6 kmh E 4.0 mph6.4 kmh 30.32 in1026.8 mb 0.00 in0.0 mm 0.00 in/hr0.0 mm/hr 0.01 in0.3 mm
04:03 PM 54.6°F12.6°C 38.8°F3.8°C 55% Calm Calm 4.0 mph6.4 kmh 30.31 in1026.4 mb 0.00 in0.0 mm 0.00 in/hr0.0 mm/hr 0.01 in0.3 mm
04:11 PM 54.2°F12.3°C 38.9°F3.8°C 56% Calm Calm 4.0 mph6.4 kmh 30.31 in1026.4 mb 0.00 in0.0 mm 0.00 in/hr0.0 mm/hr 0.01 in0.3 mm
04:21 PM 53.4°F11.9°C 38.1°F3.4°C 56% Calm Calm -- 30.32 in1026.8 mb 0.00 in0.0 mm 0.00 in/hr0.0 mm/hr 0.01 in0.3 mm
04:33 PM 53.2°F11.8°C 38.4°F3.6°C 57% Calm Calm 2.0 mph3.2 kmh 30.32 in1026.8 mb 0.00 in0.0 mm 0.00 in/hr0.0 mm/hr 0.01 in0.3 mm
04:41 PM 53.2°F11.8°C 38.4°F3.6°C 57% Calm Calm -- 30.32 in1026.8 mb 0.00 in0.0 mm 0.00 in/hr0.0 mm/hr 0.01 in0.3 mm
04:51 PM 52.9°F11.6°C 38.1°F3.4°C 57% 1.0 mph E1.6 kmh E 1.0 mph1.6 kmh 30.32 in1026.8 mb 0.00 in0.0 mm 0.00 in/hr0.0 mm/hr 0.01 in0.3 mm
05:03 PM 52.6°F11.4°C 38.3°F3.5°C 58% Calm Calm 1.0 mph1.6 kmh 30.32 in1026.8 mb 0.00 in0.0 mm 0.00 in/hr0.0 mm/hr 0.01 in0.3 mm
05:11 PM 52.6°F11.4°C 39.1°F3.9°C 60% Calm Calm 1.0 mph1.6 kmh 30.32 in1026.8 mb 0.00 in0.0 mm 0.00 in/hr0.0 mm/hr 0.01 in0.3 mm
05:21 PM 52.5°F11.4°C 39.0°F3.9°C 60% Calm Calm -- 30.32 in1026.8 mb 0.00 in0.0 mm 0.00 in/hr0.0 mm/hr 0.01 in0.3 mm
05:33 PM 52.4°F11.3°C 39.4°F4.1°C 61% 3.0 mph SW4.8 kmh SW 4.0 mph6.4 kmh 30.32 in1026.8 mb 0.00 in0.0 mm 0.00 in/hr0.0 mm/hr 0.01 in0.3 mm
05:41 PM 52.3°F11.3°C 39.7°F4.3°C 62% 4.0 mph SW6.4 kmh SW 5.0 mph8.0 kmh 30.33 in1027.1 mb 0.00 in0.0 mm 0.00 in/hr0.0 mm/hr 0.01 in0.3 mm
05:51 PM 52.3°F11.3°C 39.7°F4.3°C 62% 1.0 mph SW1.6 kmh SW 5.0 mph8.0 kmh 30.33 in1027.1 mb 0.00 in0.0 mm 0.00 in/hr0.0 mm/hr 0.01 in0.3 mm
06:11 PM 52.1°F11.2°C 39.9°F4.4°C 63% 2.0 mph SW3.2 kmh SW 4.0 mph6.4 kmh 30.33 in1027.1 mb 0.00 in0.0 mm 0.00 in/hr0.0 mm/hr 0.01 in0.3 mm
06:21 PM 51.9°F11.1°C 38.9°F3.8°C 61% 3.0 mph WSW4.8 kmh WSW 3.0 mph4.8 kmh 30.33 in1027.1 mb 0.00 in0.0 mm 0.00 in/hr0.0 mm/hr 0.01 in0.3 mm
06:33 PM 51.7°F10.9°C 38.3°F3.5°C 60% 1.0 mph WSW1.6 kmh WSW 4.0 mph6.4 kmh 30.33 in1027.1 mb 0.00 in0.0 mm 0.00 in/hr0.0 mm/hr 0.01 in0.3 mm
06:41 PM 51.6°F10.9°C 38.2°F3.4°C 60% 2.0 mph WSW3.2 kmh WSW 2.0 mph3.2 kmh 30.33 in1027.1 mb 0.00 in0.0 mm 0.00 in/hr0.0 mm/hr 0.01 in0.3 mm
06:51 PM 51.6°F10.9°C 38.2°F3.4°C 60% 1.0 mph WSW1.6 kmh WSW 2.0 mph3.2 kmh 30.33 in1027.1 mb 0.00 in0.0 mm 0.00 in/hr0.0 mm/hr 0.01 in0.3 mm
07:04 PM 51.5°F10.8°C 38.9°F3.8°C 62% Calm Calm -- 30.33 in1027.1 mb 0.00 in0.0 mm 0.00 in/hr0.0 mm/hr 0.01 in0.3 mm
07:21 PM 51.5°F10.8°C 37.7°F3.2°C 59% Calm Calm -- 30.34 in1027.4 mb 0.00 in0.0 mm 0.00 in/hr0.0 mm/hr 0.01 in0.3 mm
07:34 PM 51.7°F10.9°C 37.9°F3.3°C 59% Calm Calm -- 30.35 in1027.8 mb 0.00 in0.0 mm 0.00 in/hr0.0 mm/hr 0.01 in0.3 mm
07:41 PM 51.8°F11.0°C 37.9°F3.3°C 59% Calm Calm -- 30.35 in1027.8 mb 0.00 in0.0 mm 0.00 in/hr0.0 mm/hr 0.01 in0.3 mm
07:51 PM 51.7°F10.9°C 37.9°F3.3°C 59% Calm Calm -- 30.35 in1027.8 mb 0.00 in0.0 mm 0.00 in/hr0.0 mm/hr 0.01 in0.3 mm
08:03 PM 51.8°F11.0°C 37.9°F3.3°C 59% Calm Calm 1.0 mph1.6 kmh 30.35 in1027.8 mb 0.00 in0.0 mm 0.00 in/hr0.0 mm/hr 0.01 in0.3 mm
08:11 PM 52.1°F11.2°C 37.4°F3.0°C 57% Calm Calm 1.0 mph1.6 kmh 30.35 in1027.8 mb 0.00 in0.0 mm 0.00 in/hr0.0 mm/hr 0.01 in0.3 mm
08:21 PM 52.1°F11.2°C 37.8°F3.2°C 58% Calm Calm -- 30.36 in1028.1 mb 0.00 in0.0 mm 0.00 in/hr0.0 mm/hr 0.01 in0.3 mm
08:33 PM 51.6°F10.9°C 37.3°F2.9°C 58% Calm Calm -- 30.36 in1028.1 mb 0.00 in0.0 mm 0.00 in/hr0.0 mm/hr 0.01 in0.3 mm
08:41 PM 51.5°F10.8°C 37.2°F2.9°C 58% Calm Calm -- 30.36 in1028.1 mb 0.00 in0.0 mm 0.00 in/hr0.0 mm/hr 0.01 in0.3 mm
08:51 PM 51.3°F10.7°C 37.0°F2.8°C 58% Calm Calm 1.0 mph1.6 kmh 30.36 in1028.1 mb 0.00 in0.0 mm 0.00 in/hr0.0 mm/hr 0.01 in0.3 mm
09:03 PM 51.3°F10.7°C 37.0°F2.8°C 58% Calm Calm 1.0 mph1.6 kmh 30.36 in1028.1 mb 0.00 in0.0 mm 0.00 in/hr0.0 mm/hr 0.01 in0.3 mm
09:11 PM 51.1°F10.6°C 36.0°F2.2°C 56% Calm Calm 1.0 mph1.6 kmh 30.36 in1028.1 mb 0.00 in0.0 mm 0.00 in/hr0.0 mm/hr 0.01 in0.3 mm
09:21 PM 50.9°F10.5°C 35.8°F2.1°C 56% Calm Calm -- 30.36 in1028.1 mb 0.00 in0.0 mm 0.00 in/hr0.0 mm/hr 0.01 in0.3 mm
09:33 PM 50.8°F10.4°C 35.7°F2.1°C 56% Calm Calm -- 30.36 in1028.1 mb 0.00 in0.0 mm 0.00 in/hr0.0 mm/hr 0.01 in0.3 mm
09:41 PM 50.8°F10.4°C 35.7°F2.1°C 56% Calm Calm -- 30.36 in1028.1 mb 0.00 in0.0 mm 0.00 in/hr0.0 mm/hr 0.01 in0.3 mm
09:51 PM 51.0°F10.6°C 35.4°F1.9°C 55% Calm Calm -- 30.36 in1028.1 mb 0.00 in0.0 mm 0.00 in/hr0.0 mm/hr 0.01 in0.3 mm
10:04 PM 51.0°F10.6°C 35.9°F2.2°C 56% Calm Calm -- 30.36 in1028.1 mb 0.00 in0.0 mm 0.00 in/hr0.0 mm/hr 0.01 in0.3 mm
10:11 PM 50.9°F10.5°C 35.8°F2.1°C 56% Calm Calm -- 30.36 in1028.1 mb 0.00 in0.0 mm 0.00 in/hr0.0 mm/hr 0.01 in0.3 mm
10:21 PM 50.9°F10.5°C 35.8°F2.1°C 56% Calm Calm -- 30.36 in1028.1 mb 0.00 in0.0 mm 0.00 in/hr0.0 mm/hr 0.01 in0.3 mm
10:33 PM 50.8°F10.4°C 35.7°F2.1°C 56% Calm Calm -- 30.36 in1028.1 mb 0.00 in0.0 mm 0.00 in/hr0.0 mm/hr 0.01 in0.3 mm
10:41 PM 50.7°F10.4°C 35.6°F2.0°C 56% Calm Calm -- 30.36 in1028.1 mb 0.00 in0.0 mm 0.00 in/hr0.0 mm/hr 0.01 in0.3 mm
10:51 PM 50.7°F10.4°C 35.6°F2.0°C 56% Calm Calm -- 30.36 in1028.1 mb 0.00 in0.0 mm 0.00 in/hr0.0 mm/hr 0.01 in0.3 mm
11:03 PM 50.7°F10.4°C 35.6°F2.0°C 56% Calm Calm -- 30.36 in1028.1 mb 0.00 in0.0 mm 0.00 in/hr0.0 mm/hr 0.01 in0.3 mm
11:11 PM 50.7°F10.4°C 35.6°F2.0°C 56% 1.0 mph WSW1.6 kmh WSW 1.0 mph1.6 kmh 30.36 in1028.1 mb 0.00 in0.0 mm 0.00 in/hr0.0 mm/hr 0.01 in0.3 mm
11:21 PM 51.0°F10.6°C 35.9°F2.2°C 56% Calm Calm -- 30.36 in1028.1 mb 0.00 in0.0 mm 0.00 in/hr0.0 mm/hr 0.01 in0.3 mm
11:33 PM 50.7°F10.4°C 35.6°F2.0°C 56% Calm Calm 1.0 mph1.6 kmh 30.37 in1028.4 mb 0.00 in0.0 mm 0.00 in/hr0.0 mm/hr 0.01 in0.3 mm
11:41 PM 50.6°F10.3°C 35.5°F1.9°C 56% Calm Calm 1.0 mph1.6 kmh 30.37 in1028.4 mb 0.00 in0.0 mm 0.00 in/hr0.0 mm/hr 0.01 in0.3 mm
11:51 PM 50.4°F10.2°C 35.3°F1.8°C 56% Calm Calm 1.0 mph1.6 kmh 30.36 in1028.1 mb 0.00 in0.0 mm 0.00 in/hr0.0 mm/hr 0.01 in0.3 mm